Time;durP1;ratioP1;P1;durP2;ratioP2;P2;SDS_P1;SDS_P2;PMS_P1;PMS_P2;Temp;Humidity;BMP_temperature;BMP_pressure;BME280_temperature;BME280_humidity;BME280_pressure;Samples;Min_cycle;Max_cycle;Signal;HPM_P1;HPM_P2
2022/04/18 00:01:52;;;;;;;15.00;11.93;;;8.30;71.70;;;;;;5058614;28;20082;-77
2022/04/18 00:04:18;;;;;;;13.70;11.23;;;8.30;71.00;;;;;;5058722;28;20377;-77
2022/04/18 00:06:55;;;;;;;15.93;12.40;;;8.30;70.20;;;;;;5077587;28;20055;-77
2022/04/18 00:09:21;;;;;;;13.65;11.27;;;8.30;69.80;;;;;;5062228;28;20396;-76
2022/04/18 00:11:46;;;;;;;14.65;11.73;;;8.30;69.90;;;;;;5078720;28;20116;-76
2022/04/18 00:14:12;;;;;;;17.02;12.05;;;8.30;70.00;;;;;;5078286;28;20126;-76
2022/04/18 00:16:38;;;;;;;15.93;11.43;;;8.30;69.80;;;;;;5062000;28;20391;-76
2022/04/18 00:19:03;;;;;;;15.25;11.93;;;8.40;69.60;;;;;;5061250;28;20044;-76
2022/04/18 00:21:29;;;;;;;14.88;12.35;;;8.20;70.40;;;;;;5078927;27;20489;-77
2022/04/18 00:23:55;;;;;;;14.40;11.50;;;8.30;70.30;;;;;;5106038;28;20403;-77
2022/04/18 00:26:20;;;;;;;16.30;11.88;;;8.30;70.40;;;;;;5113359;28;20065;-76
2022/04/18 00:28:46;;;;;;;16.25;12.00;;;8.20;70.50;;;;;;5074620;27;20076;-76
2022/04/18 00:31:12;;;;;;;15.20;12.23;;;8.20;70.70;;;;;;5098218;27;20051;-77
2022/04/18 00:33:38;;;;;;;15.80;12.25;;;8.20;71.40;;;;;;5098491;27;20054;-76
2022/04/18 00:36:04;;;;;;;14.32;12.32;;;8.20;71.90;;;;;;5081703;27;20043;-76
2022/04/18 00:38:30;;;;;;;15.63;12.35;;;8.10;71.90;;;;;;5065332;27;20054;-76
2022/04/18 00:40:56;;;;;;;16.15;12.63;;;8.10;71.40;;;;;;5051607;28;20395;-77
2022/04/18 00:43:42;;;;;;;14.68;12.32;;;8.10;71.10;;;;;;5078151;28;20476;-77
2022/04/18 00:46:08;;;;;;;19.08;12.93;;;8.10;70.70;;;;;;5060816;28;20449;-77
2022/04/18 00:48:34;;;;;;;16.33;12.57;;;8.00;70.90;;;;;;5078233;28;20039;-77
2022/04/18 00:51:00;;;;;;;17.38;11.95;;;8.10;70.90;;;;;;5060973;28;20086;-77
2022/04/18 00:53:26;;;;;;;14.77;12.15;;;8.10;70.60;;;;;;5044842;28;20103;-77
2022/04/18 00:55:52;;;;;;;14.65;11.73;;;8.10;70.60;;;;;;5044799;28;20047;-76
2022/04/18 00:58:18;;;;;;;14.52;11.45;;;8.00;70.50;;;;;;5044263;28;20050;-76
2022/04/18 01:00:45;;;;;;;14.20;11.65;;;8.10;70.70;;;;;;5045119;28;20400;-76
2022/04/18 01:03:11;;;;;;;14.77;11.85;;;8.00;70.80;;;;;;5044301;28;20039;-76
2022/04/18 01:05:37;;;;;;;15.98;12.13;;;8.10;70.60;;;;;;5045196;28;20364;-76
2022/04/18 01:08:05;;;;;;;14.40;11.85;;;8.10;70.80;;;;;;5060490;28;20510;-77
2022/04/18 01:10:30;;;;;;;14.90;12.02;;;8.10;70.40;;;;;;5061014;28;20051;-76
2022/04/18 01:12:56;;;;;;;14.15;11.48;;;8.10;70.10;;;;;;5061456;28;20113;-77
2022/04/18 01:15:22;;;;;;;14.90;12.05;;;8.10;69.80;;;;;;5061251;28;20051;-76
2022/04/18 01:17:47;;;;;;;14.45;11.55;;;8.10;70.10;;;;;;5094693;28;20135;-76
2022/04/18 01:20:13;;;;;;;15.65;11.27;;;8.10;70.00;;;;;;5093389;28;20089;-76
2022/04/18 01:22:42;;;;;;;15.98;11.70;;;8.10;69.70;;;;;;5060950;28;20040;-76
2022/04/18 01:30:37;;;;;;;15.93;11.73;;;8.00;69.90;;;;;;5094472;28;20051;-76
2022/04/18 01:33:02;;;;;;;14.18;11.40;;;8.00;70.10;;;;;;5060774;28;20052;-76
2022/04/18 01:35:28;;;;;;;13.50;11.43;;;8.00;70.50;;;;;;5044655;28;20047;-77
2022/04/18 01:37:54;;;;;;;16.48;11.90;;;8.00;70.40;;;;;;5094586;28;20051;-76
2022/04/18 01:40:19;;;;;;;13.93;11.23;;;8.00;70.40;;;;;;5043777;28;20090;-76
2022/04/18 01:42:45;;;;;;;15.68;11.45;;;7.90;71.30;;;;;;5044201;28;20044;-76
2022/04/18 01:45:11;;;;;;;16.05;11.50;;;7.90;72.00;;;;;;5046849;28;20060;-76
2022/04/18 01:47:37;;;;;;;14.20;11.48;;;7.80;72.40;;;;;;5081752;28;20051;-76
2022/04/18 01:50:03;;;;;;;14.73;11.80;;;7.80;73.10;;;;;;5064308;28;20043;-77
2022/04/18 01:52:28;;;;;;;16.63;12.05;;;7.70;73.50;;;;;;5081744;28;20122;-76
2022/04/18 01:54:54;;;;;;;15.27;11.80;;;7.60;74.00;;;;;;5064981;28;20502;-76
2022/04/18 01:57:20;;;;;;;15.95;11.18;;;7.60;74.70;;;;;;5080820;28;20416;-76
2022/04/18 01:59:45;;;;;;;13.07;10.98;;;7.50;75.10;;;;;;5047722;28;20070;-76
2022/04/18 02:02:11;;;;;;;16.60;11.95;;;7.50;75.30;;;;;;5047508;28;20078;-76
2022/04/18 02:04:37;;;;;;;15.43;11.95;;;7.40;75.90;;;;;;5064757;28;20039;-76
2022/04/18 02:07:03;;;;;;;17.08;11.93;;;7.20;76.20;;;;;;5047408;28;20054;-76
2022/04/18 02:09:28;;;;;;;13.55;11.38;;;7.30;76.90;;;;;;5063997;28;20048;-77
2022/04/18 02:11:54;;;;;;;16.17;12.07;;;7.30;77.50;;;;;;5064562;28;20066;-76
2022/04/18 02:14:20;;;;;;;14.57;11.25;;;7.20;77.40;;;;;;5080932;28;20048;-76
2022/04/18 02:16:45;;;;;;;15.05;11.90;;;7.20;77.80;;;;;;5047819;28;20044;-76
2022/04/18 02:19:11;;;;;;;15.02;11.82;;;7.10;78.20;;;;;;5047387;28;20083;-76
2022/04/18 02:21:37;;;;;;;14.93;11.57;;;7.00;78.10;;;;;;5064092;28;20031;-76
2022/04/18 02:24:02;;;;;;;15.10;11.70;;;7.20;78.40;;;;;;5064087;28;20042;-76
2022/04/18 02:26:28;;;;;;;16.45;11.70;;;7.00;78.80;;;;;;5115272;28;20089;-76
2022/04/18 02:28:54;;;;;;;16.30;12.10;;;7.00;79.90;;;;;;5081051;28;20471;-76
2022/04/18 02:31:19;;;;;;;15.60;11.57;;;7.00;79.70;;;;;;5080473;28;20157;-76
2022/04/18 02:33:45;;;;;;;15.75;11.43;;;7.00;79.40;;;;;;5063783;28;20436;-76
2022/04/18 02:36:10;;;;;;;17.20;11.32;;;7.00;79.20;;;;;;5046952;28;20096;-76
2022/04/18 02:38:36;;;;;;;14.85;11.38;;;7.00;79.40;;;;;;5064023;28;20048;-76
2022/04/18 02:41:02;;;;;;;14.07;12.10;;;7.00;79.70;;;;;;5063842;28;20083;-76
2022/04/18 02:43:27;;;;;;;14.27;11.57;;;7.00;79.90;;;;;;5114995;28;20039;-77
2022/04/18 02:45:53;;;;;;;15.30;11.77;;;6.90;80.60;;;;;;5097204;28;20085;-76
2022/04/18 02:48:22;;;;;;;14.75;11.70;;;7.00;81.00;;;;;;5080957;28;20051;-76
2022/04/18 02:50:48;;;;;;;14.10;11.52;;;6.90;81.00;;;;;;5097163;28;20384;-76
2022/04/18 02:53:14;;;;;;;13.65;11.10;;;6.90;81.30;;;;;;5078321;27;20149;-77
2022/04/18 02:55:39;;;;;;;14.15;11.55;;;6.90;81.10;;;;;;5046809;28;20463;-76
2022/04/18 02:58:05;;;;;;;15.45;11.75;;;6.90;80.60;;;;;;5071191;27;20068;-76
2022/04/18 03:00:31;;;;;;;13.80;11.45;;;6.90;80.50;;;;;;5099842;27;20505;-78
2022/04/18 03:02:56;;;;;;;14.32;11.43;;;6.80;80.10;;;;;;5117134;27;20097;-76
2022/04/18 03:05:22;;;;;;;15.93;11.23;;;6.90;79.50;;;;;;5117032;27;20058;-77
2022/04/18 03:07:47;;;;;;;13.02;11.45;;;6.90;79.30;;;;;;5100214;27;20058;-76
2022/04/18 03:10:13;;;;;;;16.17;11.63;;;7.00;79.30;;;;;;5109391;28;20122;-77
2022/04/18 03:12:39;;;;;;;13.73;11.25;;;6.90;79.30;;;;;;5046699;28;20062;-76
2022/04/18 03:15:05;;;;;;;14.30;11.48;;;7.00;79.20;;;;;;5063445;28;20383;-77
2022/04/18 03:17:31;;;;;;;14.45;12.15;;;7.00;78.70;;;;;;5079116;28;20113;-77
2022/04/18 03:19:56;;;;;;;14.63;11.27;;;7.00;79.50;;;;;;5096892;28;20089;-77
2022/04/18 03:22:23;;;;;;;15.05;11.50;;;6.90;79.50;;;;;;5088724;28;20051;-77
2022/04/18 03:24:49;;;;;;;14.05;11.73;;;6.90;79.40;;;;;;5079647;28;20061;-76
2022/04/18 03:27:15;;;;;;;13.52;10.88;;;6.90;78.80;;;;;;5079468;28;20418;-78
2022/04/18 03:29:40;;;;;;;17.38;12.27;;;7.00;79.30;;;;;;5078807;28;20078;-77
2022/04/18 03:32:07;;;;;;;14.48;11.07;;;7.00;79.00;;;;;;5079437;28;20083;-76
2022/04/18 03:34:33;;;;;;;15.30;11.07;;;7.00;78.40;;;;;;5079072;28;20075;-77
2022/04/18 03:39:51;;;;;;;14.93;11.57;;;7.10;77.80;;;;;;5096131;28;20057;-77
2022/04/18 03:42:28;;;;;;;13.65;11.50;;;7.00;77.50;;;;;;5080100;28;20365;-77
2022/04/18 03:44:54;;;;;;;11.93;10.20;;;7.00;77.50;;;;;;5049015;28;20048;-77
2022/04/18 03:47:20;;;;;;;15.05;11.45;;;7.00;77.60;;;;;;5078664;28;20040;-77
2022/04/18 03:49:46;;;;;;;14.57;11.52;;;7.00;77.80;;;;;;5096303;28;20380;-77
2022/04/18 03:52:11;;;;;;;15.10;11.68;;;6.90;77.50;;;;;;5046023;28;20043;-78
2022/04/18 03:54:39;;;;;;;15.20;11.52;;;7.00;77.50;;;;;;5078595;28;20051;-76
2022/04/18 03:57:05;;;;;;;15.02;11.23;;;6.90;77.10;;;;;;5079640;28;20048;-76
2022/04/18 03:59:31;;;;;;;15.55;10.70;;;6.90;76.60;;;;;;5062245;28;20046;-77
2022/04/18 04:01:58;;;;;;;15.13;11.65;;;7.00;76.00;;;;;;5062143;28;20050;-76
2022/04/18 04:04:30;;;;;;;15.90;12.02;;;7.10;75.80;;;;;;5095466;28;20127;-77
2022/04/18 04:07:01;;;;;;;14.00;11.80;;;7.00;76.00;;;;;;5080185;28;20140;-77
2022/04/18 04:09:28;;;;;;;13.15;10.68;;;7.00;75.40;;;;;;5021335;28;20504;-78
2022/04/18 04:11:56;;;;;;;15.02;11.02;;;7.00;74.80;;;;;;5022192;28;20041;-76
2022/04/18 04:14:22;;;;;;;17.38;11.27;;;7.00;74.90;;;;;;5071524;28;20131;-78
2022/04/18 04:16:48;;;;;;;14.55;11.68;;;7.00;75.30;;;;;;5072103;28;20132;-80
2022/04/18 04:19:13;;;;;;;17.05;11.60;;;7.00;75.20;;;;;;5038340;28;20071;-78
2022/04/18 04:21:39;;;;;;;14.43;11.63;;;7.00;75.50;;;;;;5054956;28;20055;-78
2022/04/18 04:24:05;;;;;;;15.13;11.65;;;7.00;75.40;;;;;;5038662;28;20114;-78
2022/04/18 04:26:30;;;;;;;13.60;11.30;;;7.00;75.40;;;;;;5038068;28;20045;-77
2022/04/18 04:28:56;;;;;;;16.38;11.80;;;7.00;75.60;;;;;;5055360;28;20098;-77
2022/04/18 04:31:22;;;;;;;15.73;11.23;;;7.00;74.90;;;;;;5054959;28;20059;-77
2022/04/18 04:33:47;;;;;;;15.90;11.43;;;7.00;75.00;;;;;;5054918;28;20084;-77
2022/04/18 04:36:15;;;;;;;15.68;11.85;;;7.10;75.20;;;;;;5055150;28;20435;-78
2022/04/18 04:38:41;;;;;;;14.77;11.43;;;7.00;75.00;;;;;;5071154;28;20048;-78
2022/04/18 04:41:06;;;;;;;15.00;11.85;;;7.00;75.20;;;;;;5038673;28;20063;-78
2022/04/18 04:43:32;;;;;;;13.73;10.95;;;7.00;75.30;;;;;;5053180;28;20059;-78
2022/04/18 04:46:00;;;;;;;14.23;11.75;;;7.00;75.50;;;;;;5071656;28;20044;-79
2022/04/18 04:48:26;;;;;;;14.73;11.25;;;7.00;76.00;;;;;;5038737;28;20078;-78
2022/04/18 04:50:51;;;;;;;14.40;10.98;;;7.00;75.90;;;;;;5038531;28;20040;-78
2022/04/18 04:53:18;;;;;;;14.82;11.63;;;7.00;76.20;;;;;;5038406;28;20173;-77
2022/04/18 04:55:44;;;;;;;12.93;10.80;;;7.00;76.20;;;;;;5037660;28;20544;-78
2022/04/18 04:58:10;;;;;;;14.18;10.85;;;7.00;76.10;;;;;;5054912;28;20131;-78
2022/04/18 05:00:36;;;;;;;13.32;10.95;;;7.00;76.10;;;;;;5037773;28;20075;-78
2022/04/18 05:03:02;;;;;;;12.10;10.77;;;7.00;76.30;;;;;;5038297;28;20044;-79
2022/04/18 05:05:28;;;;;;;13.38;11.30;;;7.00;76.20;;;;;;5038006;28;20396;-78
2022/04/18 05:07:54;;;;;;;14.98;11.20;;;7.00;76.40;;;;;;5058240;28;20053;-78
2022/04/18 05:10:19;;;;;;;12.93;11.20;;;7.00;76.80;;;;;;5022014;28;20075;-78
2022/04/18 05:12:45;;;;;;;13.10;10.52;;;7.10;76.80;;;;;;5070806;28;20049;-77
2022/04/18 05:15:11;;;;;;;15.07;11.63;;;7.00;76.60;;;;;;5038060;28;20083;-78
2022/04/18 05:17:36;;;;;;;15.98;11.13;;;7.00;76.50;;;;;;5021783;28;20110;-78
2022/04/18 05:20:04;;;;;;;15.98;10.88;;;7.00;76.40;;;;;;5058842;28;20048;-78
2022/04/18 05:22:30;;;;;;;15.13;11.55;;;7.00;76.50;;;;;;5081138;28;20080;-82
2022/04/18 05:24:56;;;;;;;14.93;11.55;;;7.00;76.40;;;;;;5076469;28;20052;-78
2022/04/18 05:27:22;;;;;;;14.25;10.75;;;7.10;76.50;;;;;;5059944;28;20096;-77
2022/04/18 05:29:47;;;;;;;11.93;10.32;;;7.00;76.50;;;;;;5111983;28;20091;-78
2022/04/18 05:32:13;;;;;;;12.65;10.13;;;7.10;76.30;;;;;;5078645;28;20122;-77
2022/04/18 05:34:39;;;;;;;16.05;10.82;;;7.00;75.80;;;;;;5095107;28;20040;-78
2022/04/18 05:37:04;;;;;;;16.33;11.23;;;7.10;76.10;;;;;;5112117;28;20174;-78
2022/04/18 05:39:30;;;;;;;11.60;10.20;;;7.10;76.40;;;;;;5111074;28;20048;-78
2022/04/18 05:41:56;;;;;;;14.40;10.63;;;7.10;76.40;;;;;;5074608;28;20051;-78
2022/04/18 05:44:22;;;;;;;13.15;10.32;;;7.10;77.00;;;;;;5075028;28;20048;-77
2022/04/18 05:46:48;;;;;;;12.35;10.10;;;7.10;78.10;;;;;;5091368;28;20076;-78
2022/04/18 05:49:14;;;;;;;12.77;10.75;;;7.10;79.10;;;;;;5058247;28;20430;-77
2022/04/18 05:51:40;;;;;;;14.07;10.35;;;7.10;79.70;;;;;;5057781;28;20127;-78
2022/04/18 05:54:06;;;;;;;12.70;10.73;;;7.10;80.40;;;;;;5057394;28;20048;-77
2022/04/18 05:56:31;;;;;;;15.23;9.98;;;7.10;81.30;;;;;;5074637;28;20392;-78
2022/04/18 05:58:57;;;;;;;12.68;10.48;;;7.10;80.90;;;;;;5091330;28;20047;-77
2022/04/18 06:01:23;;;;;;;14.70;10.98;;;7.10;80.30;;;;;;5057816;28;20060;-77
2022/04/18 06:03:48;;;;;;;14.57;10.07;;;7.20;79.90;;;;;;5057758;28;20048;-77
2022/04/18 06:06:15;;;;;;;18.85;11.15;;;7.20;79.60;;;;;;5058100;28;20056;-79
2022/04/18 06:08:49;;;;;;;15.52;10.65;;;7.20;78.90;;;;;;5102244;28;20540;-79
2022/04/18 06:11:33;;;;;;;14.38;11.07;;;7.30;78.80;;;;;;5100788;28;20042;-79
2022/04/18 06:13:59;;;;;;;13.50;10.38;;;7.30;78.80;;;;;;5080551;28;20039;-77
2022/04/18 06:16:25;;;;;;;15.18;10.55;;;7.40;78.60;;;;;;5116183;28;20430;-76
2022/04/18 06:18:50;;;;;;;14.50;11.15;;;7.40;78.40;;;;;;5080457;28;20086;-77
2022/04/18 06:21:16;;;;;;;13.82;11.07;;;7.50;78.00;;;;;;5097768;28;20480;-78
2022/04/18 06:23:42;;;;;;;14.60;11.65;;;7.50;77.50;;;;;;5064185;28;20040;-78
2022/04/18 06:26:08;;;;;;;16.50;11.32;;;7.60;78.40;;;;;;5047471;28;20124;-79
2022/04/18 06:28:34;;;;;;;14.95;10.77;;;7.60;79.30;;;;;;5097731;28;20131;-78
2022/04/18 06:30:59;;;;;;;18.50;11.25;;;7.60;79.30;;;;;;5079916;28;20426;-77
2022/04/18 06:33:25;;;;;;;15.60;11.07;;;7.70;79.50;;;;;;5064074;28;20039;-77
2022/04/18 06:35:52;;;;;;;14.82;10.88;;;7.70;77.60;;;;;;5063767;28;20047;-77
2022/04/18 06:38:18;;;;;;;16.50;10.63;;;7.70;77.00;;;;;;5097683;28;20105;-77
2022/04/18 06:40:43;;;;;;;15.05;11.00;;;7.80;76.90;;;;;;5080434;28;20040;-78
2022/04/18 06:43:09;;;;;;;16.98;11.52;;;7.80;76.70;;;;;;5047088;28;20044;-77
2022/04/18 06:45:35;;;;;;;15.40;11.15;;;7.90;76.80;;;;;;5080343;27;20044;-81
2022/04/18 06:48:01;;;;;;;13.60;11.07;;;8.00;77.20;;;;;;5107575;27;20048;-81
2022/04/18 06:50:26;;;;;;;14.70;10.75;;;7.90;76.70;;;;;;5062739;28;20092;-80
2022/04/18 06:52:54;;;;;;;18.33;10.90;;;8.10;75.70;;;;;;5079080;28;20108;-78
2022/04/18 06:55:19;;;;;;;18.52;11.23;;;8.10;74.90;;;;;;5113675;28;20044;-78
2022/04/18 06:57:45;;;;;;;15.77;10.57;;;8.30;74.90;;;;;;5079978;28;20174;-77
2022/04/18 07:00:11;;;;;;;14.73;10.82;;;8.40;74.60;;;;;;5096947;28;20052;-76
2022/04/18 07:02:44;;;;;;;196.20;20.33;;;8.50;74.10;;;;;;5113869;28;20051;-76
2022/04/18 07:05:10;;;;;;;336.48;27.98;;;8.60;73.70;;;;;;5113716;28;20053;-79
2022/04/18 07:07:36;;;;;;;24.98;11.02;;;8.60;73.90;;;;;;5115177;28;20052;-79
2022/04/18 07:10:02;;;;;;;19.45;10.88;;;8.70;73.30;;;;;;5114527;28;20047;-82
2022/04/18 07:12:28;;;;;;;14.38;9.63;;;8.80;73.50;;;;;;5096811;28;20052;-82
2022/04/18 07:14:56;;;;;;;13.70;10.10;;;8.90;73.30;;;;;;5079608;28;20043;-86
2022/04/18 07:17:21;;;;;;;12.57;10.18;;;9.10;72.70;;;;;;5097010;28;20126;-79
2022/04/18 07:19:47;;;;;;;12.68;9.70;;;9.20;71.40;;;;;;5079576;28;20134;-81
2022/04/18 07:22:13;;;;;;;17.00;9.68;;;9.30;71.00;;;;;;5046400;28;20079;-80
2022/04/18 07:24:38;;;;;;;10.82;9.13;;;9.40;70.40;;;;;;5080182;28;20047;-81
2022/04/18 07:27:04;;;;;;;11.77;9.50;;;9.60;69.80;;;;;;5096450;28;20052;-83
2022/04/18 07:29:33;;;;;;;11.50;9.38;;;9.80;68.10;;;;;;5079956;28;20043;-80
2022/04/18 07:31:58;;;;;;;10.80;8.65;;;9.90;66.60;;;;;;5079225;28;20425;-79
2022/04/18 07:34:24;;;;;;;12.07;9.30;;;10.00;67.50;;;;;;5114705;28;20040;-78
2022/04/18 07:36:50;;;;;;;12.32;9.00;;;10.20;67.30;;;;;;5114251;28;20095;-80
2022/04/18 07:39:15;;;;;;;10.95;8.82;;;10.30;66.90;;;;;;5079853;28;20126;-79
2022/04/18 07:41:41;;;;;;;10.40;8.20;;;10.40;66.20;;;;;;5095289;28;20081;-79
2022/04/18 07:44:06;;;;;;;11.20;9.07;;;10.60;66.10;;;;;;5095922;28;20048;-79
2022/04/18 07:46:32;;;;;;;10.38;8.60;;;10.70;65.30;;;;;;5096432;28;20238;-85
2022/04/18 07:48:59;;;;;;;11.18;8.77;;;10.70;64.60;;;;;;5045576;28;20051;-84
2022/04/18 07:51:39;;;;;;;11.70;8.27;;;10.90;64.00;;;;;;5066227;27;20039;-84
2022/04/18 07:54:09;;;;;;;9.83;8.47;;;11.00;63.70;;;;;;5066517;28;20051;-85
2022/04/18 07:56:35;;;;;;;11.50;7.93;;;11.10;63.80;;;;;;5063212;28;20370;-84
2022/04/18 07:59:00;;;;;;;12.05;8.45;;;11.20;63.50;;;;;;5079824;28;20082;-88
2022/04/18 08:01:26;;;;;;;12.63;8.43;;;11.30;62.80;;;;;;5046556;28;20462;-83
2022/04/18 08:03:52;;;;;;;10.20;8.35;;;11.40;61.90;;;;;;5078758;28;20043;-83
2022/04/18 08:06:18;;;;;;;9.63;7.55;;;11.50;61.50;;;;;;5078996;28;20118;-79
2022/04/18 08:08:43;;;;;;;12.23;8.63;;;11.60;61.40;;;;;;5095316;28;20542;-79
2022/04/18 08:11:11;;;;;;;11.60;8.40;;;11.70;60.60;;;;;;5095305;28;20408;-79
2022/04/18 08:13:43;;;;;;;9.10;7.63;;;11.80;59.80;;;;;;5079447;28;20056;-79
2022/04/18 08:16:10;;;;;;;12.00;8.15;;;11.90;58.80;;;;;;5062670;28;20392;-80
2022/04/18 08:18:39;;;;;;;9.15;7.88;;;12.00;58.70;;;;;;5079117;28;20048;-80
2022/04/18 08:21:05;;;;;;;12.32;7.88;;;12.00;58.30;;;;;;5062351;28;20044;-80
2022/04/18 08:23:32;;;;;;;9.55;8.30;;;12.10;58.10;;;;;;5062001;28;20047;-80
2022/04/18 08:25:57;;;;;;;9.35;8.20;;;12.10;57.60;;;;;;5078287;28;20055;-79
2022/04/18 08:28:23;;;;;;;10.57;8.15;;;12.20;57.30;;;;;;5062139;28;20040;-79
2022/04/18 08:30:49;;;;;;;10.40;8.07;;;12.30;56.80;;;;;;5095525;28;20059;-82
2022/04/18 08:33:14;;;;;;;8.80;7.90;;;12.30;58.80;;;;;;5078233;28;20512;-80
2022/04/18 08:35:40;;;;;;;11.20;8.27;;;12.30;58.40;;;;;;5113525;28;20069;-79
2022/04/18 08:38:05;;;;;;;10.32;8.88;;;12.20;58.70;;;;;;5094980;28;20485;-79
2022/04/18 08:40:33;;;;;;;11.20;8.48;;;12.20;59.40;;;;;;5113451;28;20048;-81
2022/04/18 08:42:58;;;;;;;12.63;8.70;;;12.20;59.30;;;;;;5077995;28;20079;-82
2022/04/18 08:45:26;;;;;;;9.40;7.40;;;12.20;59.50;;;;;;5095328;28;20079;-81
2022/04/18 08:53:24;;;;;;;9.45;7.68;;;12.40;57.60;;;;;;5074601;27;20478;-82
2022/04/18 08:55:50;;;;;;;9.80;7.93;;;12.40;57.10;;;;;;5098901;27;20051;-80
2022/04/18 08:58:19;;;;;;;10.65;7.85;;;12.40;57.40;;;;;;5133422;27;20043;-81
2022/04/18 09:00:45;;;;;;;8.73;7.72;;;12.40;57.20;;;;;;5081256;27;20510;-82
2022/04/18 09:03:10;;;;;;;10.15;7.30;;;12.50;56.40;;;;;;5097948;28;20047;-81
2022/04/18 09:05:37;;;;;;;8.98;7.07;;;12.50;56.20;;;;;;5079377;28;20047;-77
2022/04/18 09:08:05;;;;;;;9.88;7.28;;;12.60;56.40;;;;;;5097611;28;20066;-83
2022/04/18 09:10:31;;;;;;;9.38;6.95;;;12.50;56.90;;;;;;5081675;28;20039;-79
2022/04/18 09:13:04;;;;;;;8.50;6.80;;;12.50;56.40;;;;;;5098211;28;20126;-79
2022/04/18 09:15:55;;;;;;;10.05;6.80;;;12.60;57.70;;;;;;5098711;28;20054;-82
2022/04/18 09:18:23;;;;;;;12.18;7.25;;;12.70;56.80;;;;;;5102120;28;20043;-87
2022/04/18 09:20:53;;;;;;;9.18;6.57;;;12.80;58.00;;;;;;5082167;28;20396;-86
2022/04/18 09:23:28;;;;;;;9.85;7.50;;;12.70;57.90;;;;;;5099086;28;20199;-84
2022/04/18 09:26:03;;;;;;;8.32;7.28;;;12.80;58.20;;;;;;5114951;28;20154;-84
2022/04/18 09:28:33;;;;;;;8.77;6.72;;;12.90;57.90;;;;;;5116054;28;20138;-87
2022/04/18 09:31:09;;;;;;;10.07;7.35;;;13.00;58.30;;;;;;5098972;28;20051;-83
2022/04/18 09:33:41;;;;;;;8.82;7.20;;;13.00;57.70;;;;;;5117407;28;20050;-87
2022/04/18 09:36:15;;;;;;;12.00;7.47;;;13.20;57.60;;;;;;5115146;28;20111;-91
2022/04/18 09:38:59;;;;;;;8.82;6.05;;;13.20;57.40;;;;;;5082492;28;20051;-84
2022/04/18 09:41:32;;;;;;;15.98;6.88;;;13.30;56.30;;;;;;5081701;28;20086;-88
2022/04/18 09:44:00;;;;;;;7.43;6.32;;;13.40;55.80;;;;;;5101143;28;20039;-89
2022/04/18 09:46:28;;;;;;;9.07;6.65;;;13.50;54.70;;;;;;5116277;28;20151;-86
2022/04/18 09:49:03;;;;;;;7.47;6.32;;;13.70;56.30;;;;;;5099217;28;20043;-88
2022/04/18 09:51:34;;;;;;;9.00;6.53;;;13.80;55.60;;;;;;5081034;28;20035;-88
2022/04/18 09:54:13;;;;;;;9.27;6.55;;;13.80;55.10;;;;;;5082685;28;20372;-89
2022/04/18 09:57:07;;;;;;;8.05;6.68;;;13.90;54.60;;;;;;5084409;28;20045;-87
2022/04/18 09:59:43;;;;;;;;;;;;;;;;;;;;;
2022/04/18 10:02:22;;;;;;;;;;;;;;;;;;;;;
2022/04/18 10:05:01;;;;;;;;;;;;;;;;;;;;;
2022/04/18 10:08:03;;;;;;;8.65;6.80;;;14.20;54.00;;;;;;5087774;27;20059;-85
2022/04/18 10:10:30;;;;;;;10.48;6.63;;;14.20;54.20;;;;;;5093620;27;20142;-86
2022/04/18 10:13:22;;;;;;;9.20;5.95;;;14.20;54.10;;;;;;5086226;27;20445;-88
2022/04/18 10:16:01;;;;;;;;;;;;;;;;;;;;;
2022/04/18 10:18:40;;;;;;;7.05;5.60;;;14.40;53.90;;;;;;5089143;27;20050;-87
2022/04/18 10:21:26;;;;;;;8.52;6.15;;;14.50;53.90;;;;;;5071946;27;20047;-89
2022/04/18 10:24:09;;;;;;;6.68;5.43;;;14.60;52.40;;;;;;5086714;27;20454;-83
2022/04/18 10:27:12;;;;;;;7.38;6.32;;;14.60;52.90;;;;;;5102581;27;20483;-85
2022/04/18 10:29:43;;;;;;;8.63;6.38;;;14.60;51.80;;;;;;5101967;27;20224;-88
2022/04/18 10:32:11;;;;;;;6.97;5.78;;;14.60;52.20;;;;;;5069426;27;20047;-85
2022/04/18 10:34:37;;;;;;;8.90;5.82;;;14.70;52.70;;;;;;5084465;27;20051;-82
2022/04/18 10:37:06;;;;;;;6.57;5.78;;;14.90;53.10;;;;;;5084378;27;20047;-84
2022/04/18 10:39:36;;;;;;;7.20;5.43;;;14.90;53.00;;;;;;5083840;27;20483;-82
2022/04/18 10:42:19;;;;;;;6.43;5.60;;;15.10;52.90;;;;;;5085029;27;20066;-83
2022/04/18 10:44:57;;;;;;;6.18;4.68;;;15.10;52.00;;;;;;5085237;27;20055;-86
2022/04/18 10:47:23;;;;;;;5.72;4.78;;;15.10;50.80;;;;;;5117727;27;20405;-84
2022/04/18 10:50:15;;;;;;;6.95;4.95;;;15.20;50.70;;;;;;5083670;27;20043;-82
2022/04/18 10:52:40;;;;;;;5.38;4.85;;;15.20;49.00;;;;;;5085468;27;20046;-83
2022/04/18 10:55:10;;;;;;;4.35;3.95;;;15.30;50.30;;;;;;5101087;27;20088;-81
2022/04/18 10:57:35;;;;;;;5.88;4.55;;;15.30;51.00;;;;;;5101210;27;20093;-83
2022/04/18 11:00:04;;;;;;;6.45;4.63;;;15.40;50.10;;;;;;5066942;27;20047;-83
2022/04/18 11:02:39;;;;;;;5.00;4.50;;;15.50;49.70;;;;;;5067643;27;20046;-82
2022/04/18 11:05:06;;;;;;;4.47;3.30;;;15.70;49.30;;;;;;5068177;27;20051;-82
2022/04/18 11:07:38;;;;;;;4.13;3.65;;;15.70;48.50;;;;;;5071356;28;20043;-83
2022/04/18 11:10:21;;;;;;;5.25;4.07;;;15.80;47.00;;;;;;5064329;28;20379;-83
2022/04/18 11:12:47;;;;;;;4.20;3.75;;;15.90;46.70;;;;;;5087087;27;20092;-83
2022/04/18 11:15:12;;;;;;;5.75;3.40;;;15.80;46.10;;;;;;5067404;27;20047;-83
2022/04/18 11:17:40;;;;;;;4.72;3.17;;;15.80;46.90;;;;;;5082946;27;20090;-83
2022/04/18 11:20:35;;;;;;;5.20;3.75;;;16.00;48.80;;;;;;5067052;27;20395;-81
2022/04/18 11:23:27;;;;;;;6.85;4.30;;;16.20;45.60;;;;;;5070424;27;20035;-84
2022/04/18 11:25:54;;;;;;;5.72;4.15;;;16.20;45.90;;;;;;5080199;28;20070;-80
2022/04/18 11:28:20;;;;;;;4.45;3.70;;;16.10;45.90;;;;;;5113449;28;20047;-87
2022/04/18 11:30:45;;;;;;;6.05;4.00;;;16.10;46.20;;;;;;5062431;28;20055;-82
2022/04/18 11:33:11;;;;;;;4.10;3.28;;;16.30;45.90;;;;;;5096725;28;20048;-85
2022/04/18 11:35:37;;;;;;;4.82;3.58;;;16.30;45.10;;;;;;5079386;28;20089;-83
2022/04/18 11:38:09;;;;;;;5.63;3.58;;;16.30;46.10;;;;;;5076280;28;20047;-83
2022/04/18 11:40:38;;;;;;;5.38;3.97;;;16.40;46.50;;;;;;5090299;28;20055;-84
2022/04/18 11:43:16;;;;;;;4.80;3.60;;;16.40;45.00;;;;;;5062668;28;20044;-83
2022/04/18 11:45:47;;;;;;;4.18;3.78;;;16.50;45.00;;;;;;5046702;28;20203;-81
2022/04/18 11:48:13;;;;;;;3.63;3.30;;;16.50;45.30;;;;;;5084421;28;20452;-81
2022/04/18 11:50:47;;;;;;;5.13;3.60;;;16.60;45.20;;;;;;5063836;27;20043;-82
2022/04/18 11:53:16;;;;;;;4.45;3.75;;;16.60;43.70;;;;;;5096450;28;20046;-82
2022/04/18 11:55:43;;;;;;;3.85;3.30;;;16.60;43.50;;;;;;5089422;28;20115;-88
2022/04/18 11:58:14;;;;;;;5.05;3.20;;;16.70;42.70;;;;;;5063026;28;20054;-85
2022/04/18 12:12:19;;;;;;;;;;;;;;;;;;;;;
2022/04/18 12:19:11;;;;;;;3.63;3.30;;;17.00;41.20;;;;;;5079261;28;20466;-87
2022/04/18 12:25:18;;;;;;;;;;;;;;;;;;;;;
2022/04/18 12:28:14;;;;;;;5.18;3.00;;;17.10;41.20;;;;;;5082522;28;20529;-89
2022/04/18 12:30:58;;;;;;;6.50;4.10;;;17.10;41.10;;;;;;5051840;28;20073;-90
2022/04/18 12:34:00;;;;;;;4.60;3.83;;;17.20;40.30;;;;;;5051079;27;20051;-89
2022/04/18 12:36:42;;;;;;;5.22;3.80;;;17.30;40.20;;;;;;5080267;27;20054;-89
2022/04/18 12:43:17;;;;;;;;;;;;;;;;;;;;;
2022/04/18 12:46:52;;;;;;;;;;;;;;;;;;;;;
2022/04/18 12:49:40;;;;;;;4.43;3.60;;;17.40;39.80;;;;;;5118758;27;20477;-89
2022/04/18 12:56:20;;;;;;;;;;;;;;;;;;;;;
2022/04/18 13:00:06;;;;;;;;;;;;;;;;;;;;;
2022/04/18 13:03:15;;;;;;;5.28;3.65;;;17.30;41.00;;;;;;5047485;28;20320;-89
2022/04/18 13:05:47;;;;;;;7.10;3.95;;;17.30;41.30;;;;;;4988239;28;20051;-85
2022/04/18 13:08:18;;;;;;;6.43;4.00;;;17.30;41.00;;;;;;5067590;28;20396;-77
2022/04/18 13:10:44;;;;;;;5.28;3.47;;;17.30;40.90;;;;;;5130809;28;20395;-77
2022/04/18 13:13:17;;;;;;;4.22;3.47;;;17.30;40.80;;;;;;5093515;28;20032;-77
2022/04/18 13:15:45;;;;;;;5.22;4.00;;;17.50;41.90;;;;;;5120807;28;20035;-76
2022/04/18 13:18:21;;;;;;;3.78;3.40;;;17.50;41.00;;;;;;5078012;28;20043;-78
2022/04/18 13:20:47;;;;;;;5.53;3.40;;;17.50;40.30;;;;;;5129154;28;20047;-78
2022/04/18 13:23:13;;;;;;;6.05;4.18;;;17.50;41.00;;;;;;5114352;28;20490;-78
2022/04/18 13:25:39;;;;;;;5.32;4.32;;;17.50;42.00;;;;;;5113538;28;20483;-80
2022/04/18 13:28:09;;;;;;;4.90;4.03;;;17.60;41.20;;;;;;5080582;28;20127;-80
2022/04/18 13:30:39;;;;;;;6.43;4.53;;;17.80;41.30;;;;;;5095419;28;20090;-77
2022/04/18 13:33:05;;;;;;;4.50;3.90;;;17.80;41.20;;;;;;5122867;28;20395;-76
2022/04/18 13:35:31;;;;;;;5.10;4.45;;;17.70;40.90;;;;;;5114441;28;20773;-76
2022/04/18 13:38:03;;;;;;;5.35;4.03;;;17.70;40.40;;;;;;5090058;28;20072;-77
2022/04/18 13:40:29;;;;;;;5.57;4.20;;;17.70;40.70;;;;;;5114332;27;20133;-75
2022/04/18 13:42:54;;;;;;;5.10;3.90;;;17.70;40.70;;;;;;5118042;27;20127;-76